sensor_id;sensor_type;location;lat;lon;timestamp;temperature;humidity
41756;DHT22;27435;48.480;9.258;2023-04-24T00:01:40;11.40;92.10
41756;DHT22;27435;48.480;9.258;2023-04-24T00:04:06;11.40;92.60
41756;DHT22;27435;48.480;9.258;2023-04-24T00:06:32;11.40;92.20
41756;DHT22;27435;48.480;9.258;2023-04-24T00:09:00;11.40;92.10
41756;DHT22;27435;48.480;9.258;2023-04-24T00:11:26;11.40;91.70
41756;DHT22;27435;48.480;9.258;2023-04-24T00:13:52;11.40;92.30
41756;DHT22;27435;48.480;9.258;2023-04-24T00:16:18;11.40;92.10
41756;DHT22;27435;48.480;9.258;2023-04-24T00:18:43;11.40;92.00
41756;DHT22;27435;48.480;9.258;2023-04-24T00:21:10;11.50;92.40
41756;DHT22;27435;48.480;9.258;2023-04-24T00:23:36;11.50;92.20
41756;DHT22;27435;48.480;9.258;2023-04-24T00:26:02;11.50;92.20
41756;DHT22;27435;48.480;9.258;2023-04-24T00:28:27;11.60;91.50
41756;DHT22;27435;48.480;9.258;2023-04-24T00:30:53;11.60;91.70
41756;DHT22;27435;48.480;9.258;2023-04-24T00:33:19;11.60;91.80
41756;DHT22;27435;48.480;9.258;2023-04-24T00:35:45;11.60;92.50
41756;DHT22;27435;48.480;9.258;2023-04-24T00:38:10;11.60;93.00
41756;DHT22;27435;48.480;9.258;2023-04-24T00:40:36;11.60;92.70
41756;DHT22;27435;48.480;9.258;2023-04-24T00:43:01;11.60;92.70
41756;DHT22;27435;48.480;9.258;2023-04-24T00:45:27;11.60;93.20
41756;DHT22;27435;48.480;9.258;2023-04-24T00:47:53;11.60;93.40
41756;DHT22;27435;48.480;9.258;2023-04-24T00:50:21;11.50;93.20
41756;DHT22;27435;48.480;9.258;2023-04-24T00:52:47;11.60;93.10
41756;DHT22;27435;48.480;9.258;2023-04-24T00:55:12;11.60;93.40
41756;DHT22;27435;48.480;9.258;2023-04-24T00:57:38;11.60;93.50
41756;DHT22;27435;48.480;9.258;2023-04-24T01:00:06;11.60;93.80
41756;DHT22;27435;48.480;9.258;2023-04-24T01:02:37;11.70;93.70
41756;DHT22;27435;48.480;9.258;2023-04-24T01:05:08;11.60;94.20
41756;DHT22;27435;48.480;9.258;2023-04-24T01:07:34;11.50;95.30
41756;DHT22;27435;48.480;9.258;2023-04-24T01:10:01;11.50;95.40
41756;DHT22;27435;48.480;9.258;2023-04-24T01:12:26;11.40;96.20
41756;DHT22;27435;48.480;9.258;2023-04-24T01:14:52;11.50;96.30
41756;DHT22;27435;48.480;9.258;2023-04-24T01:17:18;11.40;97.40
41756;DHT22;27435;48.480;9.258;2023-04-24T01:19:43;11.40;98.20
41756;DHT22;27435;48.480;9.258;2023-04-24T01:22:16;11.30;99.00
41756;DHT22;27435;48.480;9.258;2023-04-24T01:24:42;11.40;99.00
41756;DHT22;27435;48.480;9.258;2023-04-24T01:27:10;11.20;99.00
41756;DHT22;27435;48.480;9.258;2023-04-24T01:29:36;11.20;99.00
41756;DHT22;27435;48.480;9.258;2023-04-24T01:32:03;11.20;99.00
41756;DHT22;27435;48.480;9.258;2023-04-24T01:34:29;11.20;99.00
41756;DHT22;27435;48.480;9.258;2023-04-24T01:36:55;11.10;99.00
41756;DHT22;27435;48.480;9.258;2023-04-24T01:39:22;11.10;99.00
41756;DHT22;27435;48.480;9.258;2023-04-24T01:41:49;11.00;99.00
41756;DHT22;27435;48.480;9.258;2023-04-24T01:44:15;11.00;99.00
41756;DHT22;27435;48.480;9.258;2023-04-24T01:46:41;11.00;99.00
41756;DHT22;27435;48.480;9.258;2023-04-24T01:49:07;10.90;99.00
41756;DHT22;27435;48.480;9.258;2023-04-24T01:51:33;10.80;99.00
41756;DHT22;27435;48.480;9.258;2023-04-24T01:53:58;10.70;99.00
41756;DHT22;27435;48.480;9.258;2023-04-24T01:56:24;10.60;99.00
41756;DHT22;27435;48.480;9.258;2023-04-24T01:58:52;10.60;99.00
41756;DHT22;27435;48.480;9.258;2023-04-24T02:01:20;10.60;99.00
41756;DHT22;27435;48.480;9.258;2023-04-24T02:03:45;10.50;99.00
41756;DHT22;27435;48.480;9.258;2023-04-24T02:06:11;10.50;99.00
41756;DHT22;27435;48.480;9.258;2023-04-24T02:08:37;10.50;99.00
41756;DHT22;27435;48.480;9.258;2023-04-24T02:11:02;10.50;99.00
41756;DHT22;27435;48.480;9.258;2023-04-24T02:13:28;10.50;99.00
41756;DHT22;27435;48.480;9.258;2023-04-24T02:15:54;10.60;99.00
41756;DHT22;27435;48.480;9.258;2023-04-24T02:18:19;10.60;99.00
41756;DHT22;27435;48.480;9.258;2023-04-24T02:20:46;10.70;99.00
41756;DHT22;27435;48.480;9.258;2023-04-24T02:23:11;10.60;99.00
41756;DHT22;27435;48.480;9.258;2023-04-24T02:25:38;10.60;99.00
41756;DHT22;27435;48.480;9.258;2023-04-24T02:28:04;10.60;99.00
41756;DHT22;27435;48.480;9.258;2023-04-24T02:30:29;10.50;99.00
41756;DHT22;27435;48.480;9.258;2023-04-24T02:32:55;10.40;99.00
41756;DHT22;27435;48.480;9.258;2023-04-24T02:35:21;10.40;99.00
41756;DHT22;27435;48.480;9.258;2023-04-24T02:37:47;10.40;99.00
41756;DHT22;27435;48.480;9.258;2023-04-24T02:40:12;10.40;99.00
41756;DHT22;27435;48.480;9.258;2023-04-24T02:42:38;10.30;99.00
41756;DHT22;27435;48.480;9.258;2023-04-24T02:45:04;10.30;99.00
41756;DHT22;27435;48.480;9.258;2023-04-24T02:47:30;10.20;99.00
41756;DHT22;27435;48.480;9.258;2023-04-24T02:49:56;10.20;99.00
41756;DHT22;27435;48.480;9.258;2023-04-24T02:52:21;10.20;99.00
41756;DHT22;27435;48.480;9.258;2023-04-24T02:54:47;10.10;99.00
41756;DHT22;27435;48.480;9.258;2023-04-24T02:57:13;10.10;99.00
41756;DHT22;27435;48.480;9.258;2023-04-24T02:59:38;10.00;99.00
41756;DHT22;27435;48.480;9.258;2023-04-24T03:02:04;10.00;99.00
41756;DHT22;27435;48.480;9.258;2023-04-24T03:04:29;10.00;99.00
41756;DHT22;27435;48.480;9.258;2023-04-24T03:06:55;10.00;99.00
41756;DHT22;27435;48.480;9.258;2023-04-24T03:09:22;10.00;99.00
41756;DHT22;27435;48.480;9.258;2023-04-24T03:11:47;10.00;99.00
41756;DHT22;27435;48.480;9.258;2023-04-24T03:14:15;10.10;99.00
41756;DHT22;27435;48.480;9.258;2023-04-24T03:16:40;10.10;99.00
41756;DHT22;27435;48.480;9.258;2023-04-24T03:19:06;10.10;99.00
41756;DHT22;27435;48.480;9.258;2023-04-24T03:21:32;10.10;99.00
41756;DHT22;27435;48.480;9.258;2023-04-24T03:23:58;10.10;99.00
41756;DHT22;27435;48.480;9.258;2023-04-24T03:26:24;10.20;99.00
41756;DHT22;27435;48.480;9.258;2023-04-24T03:28:50;10.30;99.00
41756;DHT22;27435;48.480;9.258;2023-04-24T03:31:15;10.50;99.00
41756;DHT22;27435;48.480;9.258;2023-04-24T03:33:42;10.40;99.00
41756;DHT22;27435;48.480;9.258;2023-04-24T03:36:07;10.30;99.00
41756;DHT22;27435;48.480;9.258;2023-04-24T03:38:33;10.30;99.00
41756;DHT22;27435;48.480;9.258;2023-04-24T03:40:59;10.10;99.00
41756;DHT22;27435;48.480;9.258;2023-04-24T03:43:24;10.00;99.00
41756;DHT22;27435;48.480;9.258;2023-04-24T03:45:50;9.90;99.00
41756;DHT22;27435;48.480;9.258;2023-04-24T03:48:16;9.80;99.00
41756;DHT22;27435;48.480;9.258;2023-04-24T03:50:41;9.80;99.00
41756;DHT22;27435;48.480;9.258;2023-04-24T03:53:07;9.90;99.00
41756;DHT22;27435;48.480;9.258;2023-04-24T03:55:33;9.90;99.00
41756;DHT22;27435;48.480;9.258;2023-04-24T03:57:59;9.90;99.00
41756;DHT22;27435;48.480;9.258;2023-04-24T04:00:24;9.80;99.00
41756;DHT22;27435;48.480;9.258;2023-04-24T04:02:51;9.80;99.00
41756;DHT22;27435;48.480;9.258;2023-04-24T04:05:16;9.80;99.00
41756;DHT22;27435;48.480;9.258;2023-04-24T04:07:42;9.70;99.00
41756;DHT22;27435;48.480;9.258;2023-04-24T04:10:08;9.60;99.00
41756;DHT22;27435;48.480;9.258;2023-04-24T04:12:33;9.60;99.00
41756;DHT22;27435;48.480;9.258;2023-04-24T04:14:59;9.50;99.00
41756;DHT22;27435;48.480;9.258;2023-04-24T04:17:25;9.50;99.00
41756;DHT22;27435;48.480;9.258;2023-04-24T04:19:51;9.40;99.00
41756;DHT22;27435;48.480;9.258;2023-04-24T04:22:16;9.40;99.00
41756;DHT22;27435;48.480;9.258;2023-04-24T04:24:42;9.40;99.00
41756;DHT22;27435;48.480;9.258;2023-04-24T04:27:08;9.50;99.00
41756;DHT22;27435;48.480;9.258;2023-04-24T04:29:34;9.50;99.00
41756;DHT22;27435;48.480;9.258;2023-04-24T04:32:00;9.60;99.00
41756;DHT22;27435;48.480;9.258;2023-04-24T04:34:26;9.70;99.00
41756;DHT22;27435;48.480;9.258;2023-04-24T04:36:52;9.70;99.00
41756;DHT22;27435;48.480;9.258;2023-04-24T04:39:18;9.70;99.00
41756;DHT22;27435;48.480;9.258;2023-04-24T04:41:44;9.80;99.00
41756;DHT22;27435;48.480;9.258;2023-04-24T04:44:14;9.70;99.00
41756;DHT22;27435;48.480;9.258;2023-04-24T04:46:40;9.80;99.00
41756;DHT22;27435;48.480;9.258;2023-04-24T04:49:07;9.80;99.00
41756;DHT22;27435;48.480;9.258;2023-04-24T04:51:34;9.70;99.00
41756;DHT22;27435;48.480;9.258;2023-04-24T04:54:00;9.70;99.00
41756;DHT22;27435;48.480;9.258;2023-04-24T04:56:26;9.80;99.00
41756;DHT22;27435;48.480;9.258;2023-04-24T04:58:51;9.70;99.00
41756;DHT22;27435;48.480;9.258;2023-04-24T05:01:17;9.60;99.00
41756;DHT22;27435;48.480;9.258;2023-04-24T05:03:43;9.50;99.00
41756;DHT22;27435;48.480;9.258;2023-04-24T05:06:08;9.30;99.00
41756;DHT22;27435;48.480;9.258;2023-04-24T05:08:34;9.10;99.00
41756;DHT22;27435;48.480;9.258;2023-04-24T05:11:00;9.10;99.00
41756;DHT22;27435;48.480;9.258;2023-04-24T05:13:25;9.00;99.00
41756;DHT22;27435;48.480;9.258;2023-04-24T05:15:51;9.00;99.00
41756;DHT22;27435;48.480;9.258;2023-04-24T05:18:17;9.00;99.00
41756;DHT22;27435;48.480;9.258;2023-04-24T05:20:42;9.00;99.00
41756;DHT22;27435;48.480;9.258;2023-04-24T05:23:09;8.90;99.00
41756;DHT22;27435;48.480;9.258;2023-04-24T05:25:35;8.70;99.00
41756;DHT22;27435;48.480;9.258;2023-04-24T05:28:01;8.60;99.00
41756;DHT22;27435;48.480;9.258;2023-04-24T05:30:28;8.60;99.00
41756;DHT22;27435;48.480;9.258;2023-04-24T05:32:53;8.50;99.00
41756;DHT22;27435;48.480;9.258;2023-04-24T05:35:19;8.50;99.00
41756;DHT22;27435;48.480;9.258;2023-04-24T05:37:44;8.40;99.00
41756;DHT22;27435;48.480;9.258;2023-04-24T05:40:11;8.50;99.00
41756;DHT22;27435;48.480;9.258;2023-04-24T05:42:37;8.40;99.00
41756;DHT22;27435;48.480;9.258;2023-04-24T05:45:03;8.40;99.00
41756;DHT22;27435;48.480;9.258;2023-04-24T05:47:29;8.40;99.00
41756;DHT22;27435;48.480;9.258;2023-04-24T05:49:55;8.30;99.00
41756;DHT22;27435;48.480;9.258;2023-04-24T05:52:21;8.20;99.00
41756;DHT22;27435;48.480;9.258;2023-04-24T05:54:46;8.30;99.00
41756;DHT22;27435;48.480;9.258;2023-04-24T05:57:13;8.40;99.00
41756;DHT22;27435;48.480;9.258;2023-04-24T05:59:39;8.50;99.00
41756;DHT22;27435;48.480;9.258;2023-04-24T06:02:04;8.50;99.00
41756;DHT22;27435;48.480;9.258;2023-04-24T06:04:31;8.60;99.00
41756;DHT22;27435;48.480;9.258;2023-04-24T06:06:56;8.60;99.00
41756;DHT22;27435;48.480;9.258;2023-04-24T06:09:22;8.80;99.00
41756;DHT22;27435;48.480;9.258;2023-04-24T06:11:49;8.90;99.00
41756;DHT22;27435;48.480;9.258;2023-04-24T06:14:15;9.00;99.00
41756;DHT22;27435;48.480;9.258;2023-04-24T06:16:42;8.90;99.00
41756;DHT22;27435;48.480;9.258;2023-04-24T06:19:07;9.00;99.00
41756;DHT22;27435;48.480;9.258;2023-04-24T06:21:33;9.00;99.00
41756;DHT22;27435;48.480;9.258;2023-04-24T06:23:59;9.40;99.00
41756;DHT22;27435;48.480;9.258;2023-04-24T06:26:25;9.70;99.00
41756;DHT22;27435;48.480;9.258;2023-04-24T06:28:52;10.20;99.00
41756;DHT22;27435;48.480;9.258;2023-04-24T06:31:19;10.60;99.00
41756;DHT22;27435;48.480;9.258;2023-04-24T06:33:45;10.90;99.00
41756;DHT22;27435;48.480;9.258;2023-04-24T06:36:12;11.10;99.00
41756;DHT22;27435;48.480;9.258;2023-04-24T06:38:37;11.00;99.00
41756;DHT22;27435;48.480;9.258;2023-04-24T06:41:03;11.30;99.00
41756;DHT22;27435;48.480;9.258;2023-04-24T06:43:31;11.60;99.00
41756;DHT22;27435;48.480;9.258;2023-04-24T06:46:00;12.10;99.00
41756;DHT22;27435;48.480;9.258;2023-04-24T06:48:26;12.60;98.30
41756;DHT22;27435;48.480;9.258;2023-04-24T06:50:52;12.30;96.80
41756;DHT22;27435;48.480;9.258;2023-04-24T06:53:18;11.80;99.00
41756;DHT22;27435;48.480;9.258;2023-04-24T06:55:43;11.30;99.00
41756;DHT22;27435;48.480;9.258;2023-04-24T06:58:11;11.20;99.00
41756;DHT22;27435;48.480;9.258;2023-04-24T07:00:37;10.90;99.00
41756;DHT22;27435;48.480;9.258;2023-04-24T07:03:04;10.80;99.00
41756;DHT22;27435;48.480;9.258;2023-04-24T07:05:32;10.80;99.00
41756;DHT22;27435;48.480;9.258;2023-04-24T07:08:00;11.00;99.00
41756;DHT22;27435;48.480;9.258;2023-04-24T07:10:26;11.10;99.00
41756;DHT22;27435;48.480;9.258;2023-04-24T07:12:54;10.90;99.00
41756;DHT22;27435;48.480;9.258;2023-04-24T07:15:20;10.70;99.00
41756;DHT22;27435;48.480;9.258;2023-04-24T07:17:46;10.80;99.00
41756;DHT22;27435;48.480;9.258;2023-04-24T07:20:11;10.80;99.00
41756;DHT22;27435;48.480;9.258;2023-04-24T07:22:39;10.80;99.00
41756;DHT22;27435;48.480;9.258;2023-04-24T07:25:06;11.20;99.00
41756;DHT22;27435;48.480;9.258;2023-04-24T07:27:32;11.40;99.00
41756;DHT22;27435;48.480;9.258;2023-04-24T07:29:58;11.20;98.90
41756;DHT22;27435;48.480;9.258;2023-04-24T07:32:23;11.40;99.00
41756;DHT22;27435;48.480;9.258;2023-04-24T07:34:49;11.10;98.40
41756;DHT22;27435;48.480;9.258;2023-04-24T07:37:15;10.80;99.00
41756;DHT22;27435;48.480;9.258;2023-04-24T07:39:40;10.40;99.00
41756;DHT22;27435;48.480;9.258;2023-04-24T07:42:06;9.90;99.00
41756;DHT22;27435;48.480;9.258;2023-04-24T07:44:32;9.50;99.00
41756;DHT22;27435;48.480;9.258;2023-04-24T07:46:57;9.30;99.00
41756;DHT22;27435;48.480;9.258;2023-04-24T07:49:23;9.00;99.00
41756;DHT22;27435;48.480;9.258;2023-04-24T07:51:49;9.10;99.00
41756;DHT22;27435;48.480;9.258;2023-04-24T07:54:15;9.30;99.00
41756;DHT22;27435;48.480;9.258;2023-04-24T07:56:41;9.40;99.00
41756;DHT22;27435;48.480;9.258;2023-04-24T07:59:08;9.60;99.00
41756;DHT22;27435;48.480;9.258;2023-04-24T08:01:35;9.60;99.00
41756;DHT22;27435;48.480;9.258;2023-04-24T08:04:01;9.70;99.00
41756;DHT22;27435;48.480;9.258;2023-04-24T08:06:27;9.60;99.00
41756;DHT22;27435;48.480;9.258;2023-04-24T08:08:57;9.70;99.00
41756;DHT22;27435;48.480;9.258;2023-04-24T08:11:24;10.00;99.00
41756;DHT22;27435;48.480;9.258;2023-04-24T08:13:49;10.30;99.00
41756;DHT22;27435;48.480;9.258;2023-04-24T08:16:15;10.50;99.00
41756;DHT22;27435;48.480;9.258;2023-04-24T08:18:41;10.40;99.00
41756;DHT22;27435;48.480;9.258;2023-04-24T08:21:06;10.40;98.60
41756;DHT22;27435;48.480;9.258;2023-04-24T08:23:32;10.60;97.90
41756;DHT22;27435;48.480;9.258;2023-04-24T08:25:57;10.60;96.50
41756;DHT22;27435;48.480;9.258;2023-04-24T08:28:23;10.70;94.00
41756;DHT22;27435;48.480;9.258;2023-04-24T08:30:49;10.80;93.70
41756;DHT22;27435;48.480;9.258;2023-04-24T08:33:20;11.30;92.80
41756;DHT22;27435;48.480;9.258;2023-04-24T08:35:45;11.20;90.00
41756;DHT22;27435;48.480;9.258;2023-04-24T08:38:11;10.80;88.60
41756;DHT22;27435;48.480;9.258;2023-04-24T08:40:37;10.50;91.80
41756;DHT22;27435;48.480;9.258;2023-04-24T08:43:03;10.30;92.40
41756;DHT22;27435;48.480;9.258;2023-04-24T08:45:29;10.20;90.80
41756;DHT22;27435;48.480;9.258;2023-04-24T08:47:55;10.20;90.50
41756;DHT22;27435;48.480;9.258;2023-04-24T08:50:23;10.10;90.50
41756;DHT22;27435;48.480;9.258;2023-04-24T08:52:52;10.30;90.60
41756;DHT22;27435;48.480;9.258;2023-04-24T08:55:24;10.40;90.60
41756;DHT22;27435;48.480;9.258;2023-04-24T08:57:51;10.40;90.10
41756;DHT22;27435;48.480;9.258;2023-04-24T09:00:21;10.40;89.80
41756;DHT22;27435;48.480;9.258;2023-04-24T09:02:49;10.60;89.10
41756;DHT22;27435;48.480;9.258;2023-04-24T09:05:17;10.60;87.20
41756;DHT22;27435;48.480;9.258;2023-04-24T09:07:45;10.70;86.20
41756;DHT22;27435;48.480;9.258;2023-04-24T09:10:12;10.80;85.00
41756;DHT22;27435;48.480;9.258;2023-04-24T09:12:38;10.80;84.80
41756;DHT22;27435;48.480;9.258;2023-04-24T09:15:04;10.60;85.00
41756;DHT22;27435;48.480;9.258;2023-04-24T09:17:33;10.60;85.10
41756;DHT22;27435;48.480;9.258;2023-04-24T09:19:59;10.70;85.40
41756;DHT22;27435;48.480;9.258;2023-04-24T09:22:25;10.90;84.60
41756;DHT22;27435;48.480;9.258;2023-04-24T09:25:05;10.90;84.20
41756;DHT22;27435;48.480;9.258;2023-04-24T09:27:32;11.10;84.60
41756;DHT22;27435;48.480;9.258;2023-04-24T09:29:58;11.50;82.40
41756;DHT22;27435;48.480;9.258;2023-04-24T09:32:24;11.60;82.40
41756;DHT22;27435;48.480;9.258;2023-04-24T09:35:11;11.50;83.50
41756;DHT22;27435;48.480;9.258;2023-04-24T09:37:45;11.20;82.10
41756;DHT22;27435;48.480;9.258;2023-04-24T09:40:18;11.10;82.20
41756;DHT22;27435;48.480;9.258;2023-04-24T09:42:55;10.90;82.30
41756;DHT22;27435;48.480;9.258;2023-04-24T09:45:22;10.80;83.90
41756;DHT22;27435;48.480;9.258;2023-04-24T09:47:52;10.80;83.00
41756;DHT22;27435;48.480;9.258;2023-04-24T09:50:20;10.80;83.80
41756;DHT22;27435;48.480;9.258;2023-04-24T09:55:45;11.20;83.40
41756;DHT22;27435;48.480;9.258;2023-04-24T09:58:15;11.20;81.00
41756;DHT22;27435;48.480;9.258;2023-04-24T10:00:41;11.20;81.50
41756;DHT22;27435;48.480;9.258;2023-04-24T10:03:07;11.40;82.00
41756;DHT22;27435;48.480;9.258;2023-04-24T10:05:35;12.00;80.60
41756;DHT22;27435;48.480;9.258;2023-04-24T10:08:05;12.50;79.90
41756;DHT22;27435;48.480;9.258;2023-04-24T10:10:31;12.70;79.20
41756;DHT22;27435;48.480;9.258;2023-04-24T10:12:57;12.90;78.50
41756;DHT22;27435;48.480;9.258;2023-04-24T10:15:24;12.40;77.50
41756;DHT22;27435;48.480;9.258;2023-04-24T10:17:51;12.20;78.30
41756;DHT22;27435;48.480;9.258;2023-04-24T10:20:21;11.80;77.60
41756;DHT22;27435;48.480;9.258;2023-04-24T10:22:49;11.60;79.70
41756;DHT22;27435;48.480;9.258;2023-04-24T10:25:18;12.00;80.20
41756;DHT22;27435;48.480;9.258;2023-04-24T10:27:45;12.40;78.90
41756;DHT22;27435;48.480;9.258;2023-04-24T10:30:12;12.80;78.10
41756;DHT22;27435;48.480;9.258;2023-04-24T10:32:38;12.90;77.80
41756;DHT22;27435;48.480;9.258;2023-04-24T10:35:05;12.60;77.80
41756;DHT22;27435;48.480;9.258;2023-04-24T10:37:40;12.40;77.50
41756;DHT22;27435;48.480;9.258;2023-04-24T10:40:07;12.60;75.60
41756;DHT22;27435;48.480;9.258;2023-04-24T10:42:34;12.90;73.60
41756;DHT22;27435;48.480;9.258;2023-04-24T10:45:04;12.90;73.80
41756;DHT22;27435;48.480;9.258;2023-04-24T10:47:30;12.40;71.60
41756;DHT22;27435;48.480;9.258;2023-04-24T10:50:09;12.20;71.90
41756;DHT22;27435;48.480;9.258;2023-04-24T10:52:48;12.40;71.70
41756;DHT22;27435;48.480;9.258;2023-04-24T10:55:14;12.60;71.40
41756;DHT22;27435;48.480;9.258;2023-04-24T10:58:01;12.10;71.60
41756;DHT22;27435;48.480;9.258;2023-04-24T11:00:28;11.80;70.80
41756;DHT22;27435;48.480;9.258;2023-04-24T11:02:53;11.80;72.20
41756;DHT22;27435;48.480;9.258;2023-04-24T11:05:22;11.90;72.40
41756;DHT22;27435;48.480;9.258;2023-04-24T11:10:44;11.80;73.40
41756;DHT22;27435;48.480;9.258;2023-04-24T11:13:10;11.70;74.50
41756;DHT22;27435;48.480;9.258;2023-04-24T11:15:36;11.40;75.80
41756;DHT22;27435;48.480;9.258;2023-04-24T11:18:01;11.20;78.00
41756;DHT22;27435;48.480;9.258;2023-04-24T11:20:27;11.10;78.70
41756;DHT22;27435;48.480;9.258;2023-04-24T11:22:54;11.20;78.40
41756;DHT22;27435;48.480;9.258;2023-04-24T11:25:21;11.20;77.70
41756;DHT22;27435;48.480;9.258;2023-04-24T11:27:48;11.30;77.20
41756;DHT22;27435;48.480;9.258;2023-04-24T11:30:20;11.30;77.50
41756;DHT22;27435;48.480;9.258;2023-04-24T11:32:50;11.50;78.60
41756;DHT22;27435;48.480;9.258;2023-04-24T11:35:19;11.90;76.10
41756;DHT22;27435;48.480;9.258;2023-04-24T11:37:51;12.20;75.60
41756;DHT22;27435;48.480;9.258;2023-04-24T11:40:18;12.50;74.50
41756;DHT22;27435;48.480;9.258;2023-04-24T11:42:50;12.30;75.30
41756;DHT22;27435;48.480;9.258;2023-04-24T11:45:18;12.00;76.50
41756;DHT22;27435;48.480;9.258;2023-04-24T11:47:45;12.20;76.20
41756;DHT22;27435;48.480;9.258;2023-04-24T11:50:12;11.80;76.10
41756;DHT22;27435;48.480;9.258;2023-04-24T11:52:43;11.50;76.70
41756;DHT22;27435;48.480;9.258;2023-04-24T11:57:45;10.90;78.40
41756;DHT22;27435;48.480;9.258;2023-04-24T12:00:20;10.90;78.30
41756;DHT22;27435;48.480;9.258;2023-04-24T12:02:46;10.90;78.20
41756;DHT22;27435;48.480;9.258;2023-04-24T12:05:26;10.80;78.50
41756;DHT22;27435;48.480;9.258;2023-04-24T12:07:52;10.90;78.10
41756;DHT22;27435;48.480;9.258;2023-04-24T12:10:27;11.00;78.10
41756;DHT22;27435;48.480;9.258;2023-04-24T12:12:53;11.00;78.10
41756;DHT22;27435;48.480;9.258;2023-04-24T12:15:22;10.90;78.80
41756;DHT22;27435;48.480;9.258;2023-04-24T12:17:50;10.70;79.60
41756;DHT22;27435;48.480;9.258;2023-04-24T12:20:16;10.90;79.60
41756;DHT22;27435;48.480;9.258;2023-04-24T12:22:58;11.10;79.20
41756;DHT22;27435;48.480;9.258;2023-04-24T12:25:32;11.00;79.40
41756;DHT22;27435;48.480;9.258;2023-04-24T12:30:31;10.60;80.40
41756;DHT22;27435;48.480;9.258;2023-04-24T12:32:58;10.90;79.30
41756;DHT22;27435;48.480;9.258;2023-04-24T12:35:26;11.10;77.60
41756;DHT22;27435;48.480;9.258;2023-04-24T12:37:52;11.20;76.60
41756;DHT22;27435;48.480;9.258;2023-04-24T12:40:19;11.20;76.20
41756;DHT22;27435;48.480;9.258;2023-04-24T12:42:49;11.20;76.00
41756;DHT22;27435;48.480;9.258;2023-04-24T12:45:16;11.20;76.80
41756;DHT22;27435;48.480;9.258;2023-04-24T12:47:43;11.40;77.00
41756;DHT22;27435;48.480;9.258;2023-04-24T12:50:10;11.60;76.20
41756;DHT22;27435;48.480;9.258;2023-04-24T12:52:37;11.70;75.80
41756;DHT22;27435;48.480;9.258;2023-04-24T12:55:03;11.90;75.50
41756;DHT22;27435;48.480;9.258;2023-04-24T12:57:30;12.00;75.40
41756;DHT22;27435;48.480;9.258;2023-04-24T12:59:58;11.90;74.90
41756;DHT22;27435;48.480;9.258;2023-04-24T13:02:33;11.40;75.60
41756;DHT22;27435;48.480;9.258;2023-04-24T13:04:59;11.10;77.40
41756;DHT22;27435;48.480;9.258;2023-04-24T13:07:25;11.50;76.70
41756;DHT22;27435;48.480;9.258;2023-04-24T13:09:52;11.90;75.30
41756;DHT22;27435;48.480;9.258;2023-04-24T13:12:18;12.10;73.70
41756;DHT22;27435;48.480;9.258;2023-04-24T13:14:44;11.90;73.50
41756;DHT22;27435;48.480;9.258;2023-04-24T13:17:11;12.00;73.80
41756;DHT22;27435;48.480;9.258;2023-04-24T13:19:39;12.10;73.50
41756;DHT22;27435;48.480;9.258;2023-04-24T13:22:06;12.30;72.70
41756;DHT22;27435;48.480;9.258;2023-04-24T13:24:32;12.40;72.90
41756;DHT22;27435;48.480;9.258;2023-04-24T13:26:58;12.40;73.00
41756;DHT22;27435;48.480;9.258;2023-04-24T13:29:26;12.50;72.60
41756;DHT22;27435;48.480;9.258;2023-04-24T13:31:52;12.40;72.00
41756;DHT22;27435;48.480;9.258;2023-04-24T13:34:20;12.20;72.30
41756;DHT22;27435;48.480;9.258;2023-04-24T13:36:46;12.20;72.90
41756;DHT22;27435;48.480;9.258;2023-04-24T13:39:12;12.20;73.20
41756;DHT22;27435;48.480;9.258;2023-04-24T13:41:37;12.30;72.70
41756;DHT22;27435;48.480;9.258;2023-04-24T13:44:04;12.20;72.30
41756;DHT22;27435;48.480;9.258;2023-04-24T13:46:30;12.00;72.50
41756;DHT22;27435;48.480;9.258;2023-04-24T13:48:58;12.10;72.70
41756;DHT22;27435;48.480;9.258;2023-04-24T13:51:27;12.00;72.90
41756;DHT22;27435;48.480;9.258;2023-04-24T13:53:53;11.90;72.80
41756;DHT22;27435;48.480;9.258;2023-04-24T13:56:19;11.90;73.50
41756;DHT22;27435;48.480;9.258;2023-04-24T13:58:45;11.90;74.10
41756;DHT22;27435;48.480;9.258;2023-04-24T14:01:11;12.20;73.30
41756;DHT22;27435;48.480;9.258;2023-04-24T14:03:37;12.70;72.40
41756;DHT22;27435;48.480;9.258;2023-04-24T14:06:03;12.90;69.90
41756;DHT22;27435;48.480;9.258;2023-04-24T14:08:29;12.90;70.20
41756;DHT22;27435;48.480;9.258;2023-04-24T14:10:54;13.00;70.40
41756;DHT22;27435;48.480;9.258;2023-04-24T14:13:20;13.00;70.50
41756;DHT22;27435;48.480;9.258;2023-04-24T14:15:46;12.40;70.70
41756;DHT22;27435;48.480;9.258;2023-04-24T14:18:11;12.10;71.90
41756;DHT22;27435;48.480;9.258;2023-04-24T14:20:37;12.00;72.40
41756;DHT22;27435;48.480;9.258;2023-04-24T14:23:03;12.00;73.30
41756;DHT22;27435;48.480;9.258;2023-04-24T14:25:30;12.30;73.10
41756;DHT22;27435;48.480;9.258;2023-04-24T14:27:55;12.40;72.20
41756;DHT22;27435;48.480;9.258;2023-04-24T14:30:21;12.50;72.30
41756;DHT22;27435;48.480;9.258;2023-04-24T14:32:47;12.30;72.30
41756;DHT22;27435;48.480;9.258;2023-04-24T14:35:13;11.80;72.40
41756;DHT22;27435;48.480;9.258;2023-04-24T14:37:40;11.80;72.90
41756;DHT22;27435;48.480;9.258;2023-04-24T14:40:08;11.70;72.60
41756;DHT22;27435;48.480;9.258;2023-04-24T14:42:34;11.60;73.00
41756;DHT22;27435;48.480;9.258;2023-04-24T14:45:01;11.50;73.60
41756;DHT22;27435;48.480;9.258;2023-04-24T14:47:26;11.80;73.20
41756;DHT22;27435;48.480;9.258;2023-04-24T14:49:53;11.90;72.90
41756;DHT22;27435;48.480;9.258;2023-04-24T14:52:18;11.80;72.70
41756;DHT22;27435;48.480;9.258;2023-04-24T14:54:45;11.80;73.70
41756;DHT22;27435;48.480;9.258;2023-04-24T14:57:10;11.80;73.50
41756;DHT22;27435;48.480;9.258;2023-04-24T14:59:36;11.80;73.60
41756;DHT22;27435;48.480;9.258;2023-04-24T15:02:02;11.70;73.30
41756;DHT22;27435;48.480;9.258;2023-04-24T15:04:28;11.80;73.20
41756;DHT22;27435;48.480;9.258;2023-04-24T15:06:55;11.70;73.50
41756;DHT22;27435;48.480;9.258;2023-04-24T15:09:24;12.00;73.30
41756;DHT22;27435;48.480;9.258;2023-04-24T15:11:50;11.90;73.30
41756;DHT22;27435;48.480;9.258;2023-04-24T15:14:16;11.80;74.30
41756;DHT22;27435;48.480;9.258;2023-04-24T15:16:42;11.90;74.30
41756;DHT22;27435;48.480;9.258;2023-04-24T15:19:08;11.60;74.50
41756;DHT22;27435;48.480;9.258;2023-04-24T15:21:36;11.90;74.70
41756;DHT22;27435;48.480;9.258;2023-04-24T15:24:05;11.90;73.70
41756;DHT22;27435;48.480;9.258;2023-04-24T15:26:31;12.10;73.40
41756;DHT22;27435;48.480;9.258;2023-04-24T15:28:57;12.10;73.30
41756;DHT22;27435;48.480;9.258;2023-04-24T15:31:22;12.00;73.50
41756;DHT22;27435;48.480;9.258;2023-04-24T15:33:49;11.70;74.90
41756;DHT22;27435;48.480;9.258;2023-04-24T15:36:18;11.60;75.60
41756;DHT22;27435;48.480;9.258;2023-04-24T15:38:44;11.60;75.50
41756;DHT22;27435;48.480;9.258;2023-04-24T15:41:10;11.90;73.70
41756;DHT22;27435;48.480;9.258;2023-04-24T15:43:36;11.80;75.00